Time;durP1;ratioP1;P1;durP2;ratioP2;P2;SDS_P1;SDS_P2;PMS_P1;PMS_P2;Temp;Humidity;BMP_temperature;BMP_pressure;BME280_temperature;BME280_humidity;BME280_pressure;Samples;Min_cycle;Max_cycle;Signal;HPM_P1;HPM_P2
2023/09/08 00:02:24;;;;;;;7.60;5.83;;;19.10;99.90;;;;;;5035112;28;20552;-81
2023/09/08 00:04:53;;;;;;;8.07;6.40;;;19.10;99.90;;;;;;5034280;28;20532;-80
2023/09/08 00:07:20;;;;;;;6.37;5.77;;;19.10;99.90;;;;;;5032527;28;20461;-80
2023/09/08 00:09:47;;;;;;;10.63;6.40;;;19.00;99.90;;;;;;5032123;28;20938;-80
2023/09/08 00:12:18;;;;;;;5.83;5.10;;;19.00;99.90;;;;;;5032303;28;20463;-80
2023/09/08 00:14:45;;;;;;;8.47;5.33;;;19.00;99.90;;;;;;5032981;28;20467;-80
2023/09/08 00:17:12;;;;;;;7.33;6.47;;;19.00;99.90;;;;;;5033904;28;20472;-80
2023/09/08 00:19:41;;;;;;;6.57;5.33;;;19.00;99.90;;;;;;5033089;28;20459;-80
2023/09/08 00:22:08;;;;;;;9.23;5.90;;;18.90;99.90;;;;;;5032985;28;20523;-80
2023/09/08 00:24:35;;;;;;;7.40;6.27;;;18.90;99.90;;;;;;5032905;28;20596;-80
2023/09/08 00:27:02;;;;;;;6.60;5.90;;;18.90;99.90;;;;;;5033117;28;20551;-80
2023/09/08 00:29:30;;;;;;;10.30;6.97;;;18.80;99.90;;;;;;5034389;28;20506;-80
2023/09/08 00:31:57;;;;;;;7.73;6.40;;;18.90;99.90;;;;;;5034128;28;20447;-80
2023/09/08 00:34:24;;;;;;;7.47;6.53;;;18.80;99.90;;;;;;5030416;28;20460;-80
2023/09/08 00:36:51;;;;;;;7.33;6.53;;;18.90;99.90;;;;;;5015062;28;20951;-81
2023/09/08 00:39:17;;;;;;;10.00;6.77;;;18.80;99.90;;;;;;5031273;28;20491;-81
2023/09/08 00:41:44;;;;;;;6.57;5.87;;;18.80;99.90;;;;;;5034585;28;20459;-81
2023/09/08 00:44:11;;;;;;;7.27;6.00;;;18.80;99.90;;;;;;5035526;28;20449;-80
2023/09/08 00:46:40;;;;;;;8.80;6.57;;;18.80;99.90;;;;;;5030678;28;20456;-81
2023/09/08 00:49:08;;;;;;;9.23;7.23;;;18.80;99.90;;;;;;5016200;28;20483;-80
2023/09/08 00:51:37;;;;;;;9.20;7.07;;;18.80;99.90;;;;;;5016179;28;20935;-80
2023/09/08 00:54:05;;;;;;;7.60;5.87;;;18.80;99.90;;;;;;5031735;28;20457;-80
2023/09/08 00:56:32;;;;;;;7.37;6.47;;;18.80;99.90;;;;;;5036528;28;20449;-80
2023/09/08 00:58:59;;;;;;;7.63;6.17;;;18.70;99.90;;;;;;5029837;28;20560;-79
2023/09/08 01:01:26;;;;;;;8.17;6.70;;;18.60;99.90;;;;;;5029460;28;20992;-79
2023/09/08 01:03:54;;;;;;;6.73;5.73;;;18.60;99.90;;;;;;5044460;28;20441;-80
2023/09/08 01:06:24;;;;;;;8.97;6.20;;;18.60;99.90;;;;;;5044037;28;20455;-79
2023/09/08 01:08:52;;;;;;;7.03;6.30;;;18.60;99.90;;;;;;5043631;28;20850;-79
2023/09/08 01:11:20;;;;;;;8.77;6.83;;;18.60;99.90;;;;;;5036974;28;20492;-79
2023/09/08 01:13:47;;;;;;;9.27;6.60;;;18.60;99.90;;;;;;5034479;28;20548;-80
2023/09/08 01:16:14;;;;;;;8.30;6.30;;;18.60;99.90;;;;;;5034400;28;20806;-80
2023/09/08 01:18:41;;;;;;;9.37;6.87;;;18.50;99.90;;;;;;5033979;28;20477;-80
2023/09/08 01:21:41;;;;;;;7.63;6.83;;;18.50;99.90;;;;;;5033308;28;20882;-80
2023/09/08 01:24:31;;;;;;;9.50;6.63;;;18.40;99.90;;;;;;5015092;28;20456;-80
2023/09/08 01:26:59;;;;;;;9.17;6.57;;;18.40;99.90;;;;;;5033207;28;21018;-80
2023/09/08 01:29:29;;;;;;;7.13;6.10;;;18.40;99.90;;;;;;5033030;28;20491;-80
2023/09/08 01:31:56;;;;;;;8.20;6.60;;;18.40;99.90;;;;;;5029315;28;20462;-80
2023/09/08 01:34:24;;;;;;;7.17;5.17;;;18.40;99.90;;;;;;5033075;28;20463;-80
2023/09/08 01:36:50;;;;;;;8.37;6.17;;;18.40;99.90;;;;;;5034682;28;20460;-80
2023/09/08 01:39:17;;;;;;;7.03;6.33;;;18.40;99.90;;;;;;5037181;28;20440;-80
2023/09/08 01:41:44;;;;;;;7.63;6.87;;;18.30;99.90;;;;;;5036990;28;20452;-79
2023/09/08 01:44:31;;;;;;;8.00;6.10;;;18.30;99.90;;;;;;5037243;28;20453;-79
2023/09/08 01:47:00;;;;;;;7.10;6.17;;;18.30;99.90;;;;;;5036112;28;20460;-80
2023/09/08 01:49:29;;;;;;;9.20;7.00;;;18.30;99.90;;;;;;5037227;28;20487;-80
2023/09/08 01:51:56;;;;;;;7.27;6.20;;;18.30;99.90;;;;;;5037141;28;20453;-80
2023/09/08 01:54:23;;;;;;;7.17;6.30;;;18.20;99.90;;;;;;5036879;28;20452;-80
2023/09/08 01:56:51;;;;;;;7.37;6.57;;;18.20;99.90;;;;;;5036316;28;20468;-80
2023/09/08 01:59:19;;;;;;;8.53;6.97;;;18.20;99.90;;;;;;5036420;28;20463;-80
2023/09/08 02:01:46;;;;;;;8.83;6.83;;;18.20;99.90;;;;;;5035929;28;20453;-80
2023/09/08 02:04:13;;;;;;;7.30;6.60;;;18.20;99.90;;;;;;5036799;28;20828;-80
2023/09/08 02:06:39;;;;;;;8.93;8.13;;;18.20;99.90;;;;;;5036278;28;21021;-80
2023/09/08 02:09:06;;;;;;;8.07;7.23;;;18.10;99.90;;;;;;5036466;28;20568;-80
2023/09/08 02:11:33;;;;;;;8.07;7.20;;;18.20;99.90;;;;;;5035790;28;20452;-80
2023/09/08 02:14:00;;;;;;;7.87;7.17;;;18.10;99.90;;;;;;5036564;28;20488;-80
2023/09/08 02:16:28;;;;;;;8.40;6.80;;;18.10;99.90;;;;;;5037154;28;20452;-80
2023/09/08 02:18:55;;;;;;;9.93;8.03;;;18.10;99.90;;;;;;5037434;28;20484;-79
2023/09/08 02:21:22;;;;;;;9.00;8.10;;;18.10;99.90;;;;;;5035769;28;20449;-80
2023/09/08 02:23:49;;;;;;;8.10;7.20;;;18.10;99.90;;;;;;5036784;28;20463;-80
2023/09/08 02:26:16;;;;;;;8.47;7.57;;;18.00;99.90;;;;;;5036028;28;20457;-80
2023/09/08 02:28:42;;;;;;;9.17;6.93;;;18.00;99.90;;;;;;5035320;28;20982;-79
2023/09/08 02:31:10;;;;;;;9.87;8.33;;;18.00;99.90;;;;;;5035894;28;20461;-79
2023/09/08 02:33:38;;;;;;;8.47;7.63;;;18.00;99.90;;;;;;5036580;28;20489;-80
2023/09/08 02:36:05;;;;;;;7.87;7.17;;;18.00;99.90;;;;;;5036027;28;20928;-80
2023/09/08 02:38:32;;;;;;;8.50;7.47;;;18.00;99.90;;;;;;5035915;28;20871;-80
2023/09/08 02:40:59;;;;;;;11.23;7.87;;;18.00;99.90;;;;;;5035409;28;20452;-80
2023/09/08 02:43:27;;;;;;;9.57;7.57;;;17.90;99.90;;;;;;5036947;28;20460;-81
2023/09/08 02:45:53;;;;;;;7.93;7.13;;;18.00;99.90;;;;;;5035954;28;20874;-80
2023/09/08 02:48:22;;;;;;;9.63;7.40;;;17.90;99.90;;;;;;5035987;28;20475;-80
2023/09/08 02:50:50;;;;;;;7.80;7.00;;;17.90;99.90;;;;;;5035414;28;21108;-80
2023/09/08 02:53:17;;;;;;;7.37;6.67;;;17.90;99.90;;;;;;5035486;28;20467;-80
2023/09/08 02:55:44;;;;;;;8.63;7.20;;;17.90;99.90;;;;;;5035813;28;20480;-80
2023/09/08 02:58:12;;;;;;;7.77;6.97;;;17.90;99.90;;;;;;5031571;28;20498;-81
2023/09/08 03:00:39;;;;;;;8.10;6.40;;;17.80;99.90;;;;;;5035040;28;20991;-79
2023/09/08 03:03:06;;;;;;;7.83;6.97;;;17.80;99.90;;;;;;5034935;28;20541;-80
2023/09/08 03:05:33;;;;;;;9.07;7.67;;;17.80;99.90;;;;;;5035187;28;20452;-80
2023/09/08 03:08:01;;;;;;;8.20;7.37;;;17.80;99.90;;;;;;5034863;28;20847;-80
2023/09/08 03:10:28;;;;;;;9.97;7.77;;;17.80;99.90;;;;;;5034698;28;20497;-80
2023/09/08 03:12:55;;;;;;;8.33;7.03;;;17.80;99.90;;;;;;5034895;28;20821;-79
2023/09/08 03:15:22;;;;;;;8.73;7.80;;;17.80;99.90;;;;;;5034565;28;20832;-80
2023/09/08 03:17:49;;;;;;;9.30;7.40;;;17.80;99.90;;;;;;5034515;28;20482;-80
2023/09/08 03:20:15;;;;;;;8.53;7.73;;;17.70;99.90;;;;;;5034541;28;20460;-80
2023/09/08 03:22:42;;;;;;;9.20;7.87;;;17.70;99.90;;;;;;5035184;28;20461;-80
2023/09/08 03:25:10;;;;;;;9.00;7.80;;;17.70;99.90;;;;;;5034513;28;20452;-80
2023/09/08 03:27:37;;;;;;;7.67;6.50;;;17.70;99.90;;;;;;5035307;28;20571;-80
2023/09/08 03:30:05;;;;;;;9.00;7.97;;;17.70;99.90;;;;;;5034467;28;20479;-80
2023/09/08 03:32:32;;;;;;;7.10;6.40;;;17.70;99.90;;;;;;5035052;28;20463;-80
2023/09/08 03:34:59;;;;;;;8.77;7.40;;;17.60;99.90;;;;;;5034522;28;20467;-80
2023/09/08 03:37:31;;;;;;;9.27;8.23;;;17.60;99.90;;;;;;5035089;28;20458;-80
2023/09/08 03:39:58;;;;;;;8.43;7.37;;;17.60;99.90;;;;;;5033778;28;20457;-80
2023/09/08 03:42:26;;;;;;;8.20;7.10;;;17.60;99.90;;;;;;5016371;28;20463;-80
2023/09/08 03:44:53;;;;;;;7.73;6.93;;;17.60;99.90;;;;;;5020402;28;20519;-80
2023/09/08 03:47:20;;;;;;;11.37;8.70;;;17.60;99.90;;;;;;5034536;28;20463;-80
2023/09/08 03:49:47;;;;;;;8.63;7.53;;;17.60;99.90;;;;;;5034768;28;20577;-80
2023/09/08 03:52:14;;;;;;;9.03;7.40;;;17.60;99.90;;;;;;5034797;28;20546;-80
2023/09/08 03:54:41;;;;;;;7.23;6.53;;;17.50;99.90;;;;;;5034939;28;20459;-80
2023/09/08 03:57:08;;;;;;;7.97;7.17;;;17.50;99.90;;;;;;5023084;28;20573;-80
2023/09/08 03:59:36;;;;;;;8.30;7.40;;;17.50;99.90;;;;;;5050504;22;21043;-80
2023/09/08 04:02:03;;;;;;;7.67;6.93;;;17.50;99.90;;;;;;5034162;28;20451;-79
2023/09/08 04:04:29;;;;;;;7.70;6.90;;;17.50;99.90;;;;;;5028853;28;20477;-79
2023/09/08 04:06:59;;;;;;;8.20;7.40;;;17.50;99.90;;;;;;5033613;28;20455;-80
2023/09/08 04:09:28;;;;;;;7.33;6.63;;;17.50;99.90;;;;;;5018861;28;20472;-81
2023/09/08 04:11:57;;;;;;;9.50;7.53;;;17.50;99.90;;;;;;5011627;28;20464;-78
2023/09/08 04:14:26;;;;;;;10.23;7.50;;;17.40;99.90;;;;;;5002674;28;20553;-80
2023/09/08 04:16:55;;;;;;;6.57;5.80;;;17.40;99.90;;;;;;5015575;28;20463;-79
2023/09/08 04:19:24;;;;;;;9.27;7.83;;;17.40;99.90;;;;;;5015474;28;20560;-79
2023/09/08 04:21:51;;;;;;;6.90;6.30;;;17.40;99.90;;;;;;5021215;28;20470;-79
2023/09/08 04:24:17;;;;;;;8.57;7.67;;;17.40;99.90;;;;;;5014599;28;20452;-80
2023/09/08 04:26:44;;;;;;;7.03;6.33;;;17.40;99.90;;;;;;5020426;28;20461;-78
2023/09/08 04:29:11;;;;;;;9.33;7.17;;;17.40;99.90;;;;;;5017970;28;20470;-80
2023/09/08 04:31:38;;;;;;;8.50;7.53;;;17.40;99.90;;;;;;5020406;28;20492;-82
2023/09/08 04:34:06;;;;;;;9.07;7.20;;;17.40;99.90;;;;;;5014833;28;20454;-80
2023/09/08 04:36:33;;;;;;;8.23;6.87;;;17.40;99.90;;;;;;5013828;28;20453;-79
2023/09/08 04:39:01;;;;;;;9.60;7.20;;;17.40;99.90;;;;;;5014157;28;20786;-78
2023/09/08 04:41:28;;;;;;;8.17;6.87;;;17.30;99.90;;;;;;5012219;28;20954;-81
2023/09/08 04:43:57;;;;;;;9.70;7.40;;;17.40;99.90;;;;;;5017833;28;20463;-78
2023/09/08 04:46:24;;;;;;;8.07;7.10;;;17.30;99.90;;;;;;5016351;28;20560;-80
2023/09/08 04:48:51;;;;;;;7.90;7.00;;;17.30;99.90;;;;;;5015730;28;21010;-80
2023/09/08 04:51:19;;;;;;;7.53;6.50;;;17.40;99.90;;;;;;5016388;28;20494;-79
2023/09/08 04:53:46;;;;;;;8.20;7.27;;;17.30;99.90;;;;;;5016798;28;20488;-76
2023/09/08 04:56:14;;;;;;;7.87;6.40;;;17.30;99.90;;;;;;5016772;28;21030;-80
2023/09/08 04:58:40;;;;;;;8.23;7.43;;;17.30;99.90;;;;;;5020696;28;20482;-81
2023/09/08 05:01:07;;;;;;;8.33;7.43;;;17.30;99.90;;;;;;5016127;28;20446;-79
2023/09/08 05:03:34;;;;;;;7.57;6.87;;;17.30;99.90;;;;;;5024504;28;20697;-79
2023/09/08 05:06:01;;;;;;;13.13;6.63;;;17.30;99.90;;;;;;5016387;28;20455;-80
2023/09/08 05:08:29;;;;;;;8.20;7.03;;;17.30;99.90;;;;;;5013243;28;20496;-79
2023/09/08 05:10:56;;;;;;;8.53;7.30;;;17.30;99.90;;;;;;5007872;28;20487;-79
2023/09/08 05:13:26;;;;;;;8.60;7.20;;;17.30;99.90;;;;;;5017644;28;20465;-78
2023/09/08 05:15:59;;;;;;;8.10;7.30;;;17.30;99.90;;;;;;5023471;28;20824;-79
2023/09/08 05:18:27;;;;;;;8.73;6.50;;;17.30;99.90;;;;;;5011181;28;20514;-79
2023/09/08 05:20:53;;;;;;;9.10;6.40;;;17.30;99.90;;;;;;5009789;28;20522;-79
2023/09/08 05:23:20;;;;;;;9.87;7.70;;;17.30;99.90;;;;;;5016285;28;20459;-80
2023/09/08 05:25:48;;;;;;;7.50;6.63;;;17.30;99.90;;;;;;5024008;28;20450;-79
2023/09/08 05:28:15;;;;;;;7.53;6.80;;;17.30;99.90;;;;;;5017619;28;20472;-80
2023/09/08 05:30:42;;;;;;;8.33;7.17;;;17.30;99.90;;;;;;5027837;28;20503;-79
2023/09/08 05:33:09;;;;;;;7.53;6.73;;;17.40;99.90;;;;;;5017939;28;20457;-80
2023/09/08 05:35:36;;;;;;;8.47;6.50;;;17.40;99.90;;;;;;5017730;28;20452;-78
2023/09/08 05:38:03;;;;;;;8.60;7.40;;;17.40;99.90;;;;;;5028294;28;20449;-79
2023/09/08 05:40:30;;;;;;;8.30;7.40;;;17.40;99.90;;;;;;5036695;28;20518;-79
2023/09/08 05:42:58;;;;;;;9.23;8.33;;;17.40;99.90;;;;;;5037253;28;20457;-79
2023/09/08 05:45:25;;;;;;;8.90;7.97;;;17.40;99.90;;;;;;5022014;28;20462;-79
2023/09/08 05:47:52;;;;;;;10.37;7.60;;;17.40;99.90;;;;;;5017932;28;20450;-78
2023/09/08 05:50:19;;;;;;;9.63;7.20;;;17.50;99.90;;;;;;5021928;28;20477;-78
2023/09/08 05:52:46;;;;;;;7.67;6.60;;;17.50;99.90;;;;;;5035869;28;20955;-79
2023/09/08 05:55:13;;;;;;;8.03;6.60;;;17.50;99.90;;;;;;5029297;28;20467;-79
2023/09/08 05:57:40;;;;;;;10.37;7.07;;;17.50;99.90;;;;;;5017633;28;20456;-81
2023/09/08 06:00:09;;;;;;;10.47;7.60;;;17.60;99.90;;;;;;5023822;28;20491;-81
2023/09/08 06:02:36;;;;;;;7.80;6.13;;;17.70;99.90;;;;;;5022416;28;20902;-80
2023/09/08 06:05:04;;;;;;;7.67;6.90;;;17.70;99.90;;;;;;5024175;28;20604;-80
2023/09/08 06:07:31;;;;;;;8.70;6.30;;;17.70;99.90;;;;;;5016695;28;20463;-79
2023/09/08 06:09:57;;;;;;;7.50;6.30;;;17.70;99.90;;;;;;5014546;28;20473;-80
2023/09/08 06:12:24;;;;;;;9.00;6.60;;;17.70;99.90;;;;;;5013586;28;20515;-77
2023/09/08 06:14:51;;;;;;;7.47;6.40;;;17.80;99.90;;;;;;5009862;28;20464;-79
2023/09/08 06:17:19;;;;;;;8.20;6.57;;;17.90;99.90;;;;;;5016955;28;20543;-79
2023/09/08 06:19:46;;;;;;;8.23;5.40;;;17.90;99.90;;;;;;5022869;28;20474;-80
2023/09/08 06:22:15;;;;;;;7.50;6.30;;;18.00;99.90;;;;;;5015922;28;20539;-79
2023/09/08 06:24:42;;;;;;;6.73;6.00;;;18.00;99.90;;;;;;5016450;28;20535;-79
2023/09/08 06:27:09;;;;;;;9.07;6.30;;;18.10;99.90;;;;;;5013879;28;20465;-79
2023/09/08 06:29:35;;;;;;;11.13;6.83;;;18.20;99.90;;;;;;5011268;28;20479;-79
2023/09/08 06:32:02;;;;;;;8.33;6.83;;;18.30;99.90;;;;;;5019798;28;20533;-78
2023/09/08 06:34:30;;;;;;;8.73;5.80;;;18.30;99.90;;;;;;5030552;28;20885;-79
2023/09/08 06:36:57;;;;;;;7.30;6.23;;;18.40;99.90;;;;;;5012200;28;20468;-79
2023/09/08 06:39:26;;;;;;;9.03;6.20;;;18.40;99.90;;;;;;5017267;28;20472;-79
2023/09/08 06:41:53;;;;;;;7.50;5.87;;;18.50;99.90;;;;;;5016771;28;20966;-79
2023/09/08 06:44:20;;;;;;;7.20;6.10;;;18.50;99.90;;;;;;5016865;28;20468;-79
2023/09/08 06:46:48;;;;;;;8.20;5.93;;;18.60;99.90;;;;;;5021240;28;20965;-79
2023/09/08 06:49:15;;;;;;;6.47;5.70;;;18.60;99.90;;;;;;5022946;28;20491;-79
2023/09/08 06:51:43;;;;;;;9.60;5.80;;;18.70;99.90;;;;;;5018014;28;20493;-79
2023/09/08 06:54:10;;;;;;;5.73;5.07;;;18.80;99.90;;;;;;5015829;28;20560;-80
2023/09/08 06:56:37;;;;;;;12.30;6.60;;;18.90;99.90;;;;;;5012105;28;20556;-79
2023/09/08 06:59:03;;;;;;;8.60;5.93;;;18.90;99.90;;;;;;5012784;28;20486;-79
2023/09/08 07:01:30;;;;;;;7.07;6.10;;;19.00;99.90;;;;;;5013726;28;20455;-78
2023/09/08 07:03:57;;;;;;;7.50;6.80;;;19.00;99.90;;;;;;5017639;28;20982;-79
2023/09/08 07:06:24;;;;;;;7.27;5.60;;;19.10;99.90;;;;;;5016545;28;20442;-79
2023/09/08 07:08:52;;;;;;;7.07;6.37;;;19.20;99.90;;;;;;5016476;28;20467;-79
2023/09/08 07:11:19;;;;;;;9.70;6.23;;;19.20;99.90;;;;;;5015391;28;20573;-79
2023/09/08 07:13:46;;;;;;;11.97;6.80;;;19.30;99.90;;;;;;5016505;28;20449;-79
2023/09/08 07:16:12;;;;;;;6.33;5.13;;;19.40;99.90;;;;;;5016811;28;20822;-79
2023/09/08 07:18:39;;;;;;;10.90;6.40;;;19.40;99.90;;;;;;5016784;28;20573;-79
2023/09/08 07:21:06;;;;;;;9.00;6.27;;;19.50;99.90;;;;;;5007192;28;20450;-79
2023/09/08 07:23:35;;;;;;;6.80;6.17;;;19.50;99.90;;;;;;5011672;28;20454;-79
2023/09/08 07:26:03;;;;;;;7.30;5.80;;;19.60;99.90;;;;;;5011677;28;20825;-78
2023/09/08 07:28:30;;;;;;;10.13;5.87;;;19.70;99.90;;;;;;5015897;28;20481;-78
2023/09/08 07:31:02;;;;;;;9.43;6.13;;;19.80;99.90;;;;;;5017699;28;20485;-79
2023/09/08 07:33:28;;;;;;;8.60;6.30;;;19.90;99.90;;;;;;5017001;28;20532;-79
2023/09/08 07:35:55;;;;;;;5.83;5.10;;;19.90;99.90;;;;;;5021375;28;20468;-79
2023/09/08 07:38:22;;;;;;;8.03;6.10;;;20.00;99.90;;;;;;5014907;28;21010;-79
2023/09/08 07:40:49;;;;;;;6.57;5.97;;;20.10;99.90;;;;;;5015558;28;20458;-79
2023/09/08 07:43:17;;;;;;;7.37;5.97;;;20.20;99.90;;;;;;5018359;28;20460;-79
2023/09/08 07:45:44;;;;;;;9.90;6.50;;;20.20;99.90;;;;;;5030401;28;20840;-79
2023/09/08 07:48:10;;;;;;;7.63;6.00;;;20.30;99.90;;;;;;5021514;28;20450;-79
2023/09/08 07:50:38;;;;;;;7.73;6.13;;;20.30;96.20;;;;;;5012886;28;20456;-79
2023/09/08 07:53:05;;;;;;;7.77;6.37;;;20.50;74.70;;;;;;5013380;28;20449;-78
2023/09/08 07:55:31;;;;;;;11.87;6.63;;;20.50;92.70;;;;;;5014251;28;20454;-77
2023/09/08 07:58:02;;;;;;;7.20;6.50;;;20.60;96.80;;;;;;5012219;28;20455;-79
2023/09/08 08:00:30;;;;;;;8.40;6.73;;;20.70;89.20;;;;;;5012878;28;20462;-79
2023/09/08 08:02:58;;;;;;;7.60;5.93;;;20.80;53.90;;;;;;5010083;28;20470;-79
2023/09/08 08:05:27;;;;;;;6.30;5.63;;;20.90;57.60;;;;;;5019733;28;21139;-78
2023/09/08 08:07:54;;;;;;;6.10;5.37;;;21.00;94.80;;;;;;5013690;28;20493;-79
2023/09/08 08:10:21;;;;;;;8.10;5.47;;;21.00;75.20;;;;;;5014456;28;20460;-79
2023/09/08 08:12:48;;;;;;;6.23;5.50;;;21.10;1.00;;;;;;5013100;28;20498;-79
2023/09/08 08:15:15;;;;;;;8.57;5.80;;;21.20;20.10;;;;;;5009997;28;20549;-79
2023/09/08 08:17:44;;;;;;;8.77;6.33;;;21.30;40.70;;;;;;5016413;28;20977;-78
2023/09/08 08:20:17;;;;;;;8.03;5.60;;;21.40;55.50;;;;;;5020378;28;20510;-79
2023/09/08 08:22:44;;;;;;;10.23;5.30;;;21.50;54.90;;;;;;5014847;28;20457;-78
2023/09/08 08:25:12;;;;;;;5.90;5.13;;;21.60;48.00;;;;;;5015162;28;20469;-79
2023/09/08 08:27:39;;;;;;;10.43;5.97;;;21.80;50.30;;;;;;5013739;28;20473;-80
2023/09/08 08:30:07;;;;;;;7.63;6.07;;;21.90;1.00;;;;;;5008728;28;20473;-81
2023/09/08 08:32:34;;;;;;;7.63;5.40;;;22.00;11.70;;;;;;5009552;28;20485;-80
2023/09/08 08:35:04;;;;;;;7.20;5.10;;;22.20;33.20;;;;;;5011890;28;20457;-81
2023/09/08 08:37:34;;;;;;;8.37;5.80;;;22.30;13.50;;;;;;5017413;28;20458;-78
2023/09/08 08:40:02;;;;;;;10.47;5.90;;;22.60;2.70;;;;;;5015595;28;20497;-79
2023/09/08 08:42:32;;;;;;;6.50;5.40;;;22.80;1.00;;;;;;5014313;28;20454;-80
2023/09/08 08:45:00;;;;;;;6.20;5.27;;;23.00;9.70;;;;;;5014708;28;20492;-80
2023/09/08 08:47:28;;;;;;;9.33;5.43;;;23.10;1.00;;;;;;5020735;28;20478;-79
2023/09/08 08:49:58;;;;;;;7.10;6.00;;;23.20;1.00;;;;;;5017821;28;20479;-79
2023/09/08 08:52:27;;;;;;;5.60;5.03;;;23.30;1.00;;;;;;5021639;28;20477;-79
2023/09/08 08:54:54;;;;;;;10.90;5.57;;;23.40;1.00;;;;;;5018973;28;20899;-80
2023/09/08 08:57:22;;;;;;;8.60;5.27;;;23.40;1.00;;;;;;5017332;28;20457;-79
2023/09/08 08:59:51;;;;;;;7.10;5.73;;;23.50;1.00;;;;;;5016437;28;20556;-80
2023/09/08 09:02:19;;;;;;;7.80;5.73;;;23.50;1.00;;;;;;5017181;28;20549;-80
2023/09/08 09:04:47;;;;;;;9.00;5.03;;;23.60;1.00;;;;;;5018110;28;20528;-80
2023/09/08 09:07:15;;;;;;;9.90;5.90;;;23.70;1.00;;;;;;5020263;28;20468;-81
2023/09/08 09:09:43;;;;;;;14.00;4.50;;;23.80;1.00;;;;;;5017870;28;20478;-80
2023/09/08 09:12:10;;;;;;;8.60;5.03;;;23.80;1.00;;;;;;5006639;28;20486;-80
2023/09/08 09:14:36;;;;;;;6.03;5.23;;;23.90;1.00;;;;;;5016466;28;20460;-80
2023/09/08 09:17:05;;;;;;;6.50;5.60;;;24.10;1.00;;;;;;5009195;28;20450;-80
2023/09/08 09:19:33;;;;;;;5.63;4.43;;;24.20;1.00;;;;;;5017549;28;20486;-79
2023/09/08 09:22:00;;;;;;;7.63;5.27;;;24.30;1.00;;;;;;5018029;28;20711;-79
2023/09/08 09:24:32;;;;;;;5.37;4.43;;;24.50;1.00;;;;;;5026473;28;20452;-80
2023/09/08 09:27:01;;;;;;;5.83;4.30;;;24.60;99.90;;;;;;5019545;28;20460;-78
2023/09/08 09:29:29;;;;;;;8.70;4.83;;;24.70;99.90;;;;;;5018818;28;20484;-80
2023/09/08 09:31:57;;;;;;;5.47;4.37;;;25.00;1.00;;;;;;5019004;28;20924;-80
2023/09/08 09:34:25;;;;;;;8.27;4.77;;;25.20;99.90;;;;;;5025104;28;20456;-80
2023/09/08 09:36:52;;;;;;;5.20;4.47;;;25.40;45.40;;;;;;5018393;28;20478;-80
2023/09/08 09:39:20;;;;;;;7.23;4.53;;;25.60;1.00;;;;;;5017917;28;20472;-78
2023/09/08 09:41:48;;;;;;;5.20;4.17;;;25.90;1.00;;;;;;5024234;28;20459;-81
2023/09/08 09:44:16;;;;;;;7.00;4.23;;;26.20;1.00;;;;;;5038541;28;20455;-80
2023/09/08 09:46:46;;;;;;;6.30;3.93;;;26.50;1.00;;;;;;5026439;28;20986;-79
2023/09/08 09:49:14;;;;;;;5.30;3.50;;;26.80;92.10;;;;;;5019348;28;20473;-80
2023/09/08 09:51:43;;;;;;;5.80;4.10;;;27.00;99.90;;;;;;5026514;28;20485;-80
2023/09/08 09:54:10;;;;;;;4.33;3.43;;;27.30;99.90;;;;;;5020053;28;20556;-80
2023/09/08 09:56:39;;;;;;;7.60;3.90;;;27.60;99.90;;;;;;5016968;28;20445;-80
2023/09/08 09:59:08;;;;;;;8.10;3.80;;;27.80;1.00;;;;;;5045936;22;20508;-83
2023/09/08 10:01:38;;;;;;;4.10;3.30;;;28.10;99.90;;;;;;5025489;28;20445;-82
2023/09/08 10:04:06;;;;;;;4.83;3.77;;;28.40;48.50;;;;;;5039240;28;20449;-82
2023/09/08 10:06:34;;;;;;;8.90;4.30;;;28.50;1.00;;;;;;5036711;28;20452;-82
2023/09/08 10:09:04;;;;;;;3.80;3.20;;;28.70;1.00;;;;;;5033259;28;21060;-83
2023/09/08 10:11:35;;;;;;;3.90;3.50;;;28.90;1.00;;;;;;5019353;28;21106;-83
2023/09/08 10:14:03;;;;;;;4.93;3.83;;;29.10;1.00;;;;;;5020445;28;20545;-82
2023/09/08 10:16:35;;;;;;;4.77;3.57;;;29.40;1.00;;;;;;5019217;28;20454;-82
2023/09/08 10:19:08;;;;;;;4.83;3.73;;;29.60;1.00;;;;;;5019367;28;20497;-84
2023/09/08 10:21:41;;;;;;;3.93;3.53;;;29.50;1.00;;;;;;5012887;28;20878;-83
2023/09/08 10:24:17;;;;;;;5.63;4.03;;;29.80;1.00;;;;;;5008039;28;20456;-83
2023/09/08 10:26:47;;;;;;;5.20;3.67;;;30.10;1.00;;;;;;5019966;28;20436;-83
2023/09/08 10:29:15;;;;;;;5.33;3.80;;;30.30;1.00;;;;;;5018273;28;20492;-82
2023/09/08 10:31:43;;;;;;;4.83;4.10;;;30.40;1.00;;;;;;5010264;28;20492;-83
2023/09/08 10:34:11;;;;;;;9.43;3.60;;;30.30;1.00;;;;;;4998364;28;20552;-83
2023/09/08 10:36:39;;;;;;;4.63;3.70;;;30.60;1.00;;;;;;5014236;28;20517;-82
2023/09/08 10:39:29;;;;;;;6.60;3.77;;;30.80;1.00;;;;;;4988215;28;22545;-82
2023/09/08 10:42:25;;;;;;;3.87;3.20;;;30.90;1.00;;;;;;5020470;28;20449;-82
2023/09/08 10:45:17;;;;;;;6.73;4.00;;;31.10;1.00;;;;;;5015261;28;20450;-81
2023/09/08 10:47:57;;;;;;;4.70;3.60;;;31.20;1.00;;;;;;5011712;28;20549;-81
2023/09/08 10:50:33;;;;;;;4.03;3.63;;;31.50;1.00;;;;;;5010353;28;20463;-82
2023/09/08 10:53:14;;;;;;;5.20;3.30;;;31.70;1.00;;;;;;5010692;28;20473;-85
2023/09/08 10:55:42;;;;;;;5.20;3.77;;;31.80;1.00;;;;;;5020887;28;20885;-83
2023/09/08 10:58:11;;;;;;;5.93;4.17;;;31.80;1.00;;;;;;5018501;28;20450;-83
2023/09/08 11:00:45;;;;;;;5.53;3.57;;;32.10;1.00;;;;;;5020259;28;20564;-83
2023/09/08 11:03:13;;;;;;;5.43;3.80;;;32.00;1.00;;;;;;5014999;28;20474;-83
2023/09/08 11:05:42;;;;;;;4.47;3.70;;;32.00;1.00;;;;;;5003639;28;20458;-83
2023/09/08 11:08:09;;;;;;;6.30;3.60;;;32.20;1.00;;;;;;5001934;28;20452;-84
2023/09/08 11:10:37;;;;;;;5.97;3.60;;;32.30;1.00;;;;;;5007716;28;20477;-82
2023/09/08 11:13:05;;;;;;;3.70;3.30;;;32.50;1.00;;;;;;5019799;28;20551;-83
2023/09/08 11:15:32;;;;;;;4.07;3.67;;;32.40;1.00;;;;;;5019061;28;20541;-83
2023/09/08 11:18:06;;;;;;;4.60;3.83;;;32.60;1.00;;;;;;5019730;28;20453;-83
2023/09/08 11:20:36;;;;;;;4.13;3.50;;;32.80;1.00;;;;;;5021286;28;20477;-82
2023/09/08 11:23:05;;;;;;;5.30;4.00;;;32.90;1.00;;;;;;5020061;28;20457;-84
2023/09/08 11:25:34;;;;;;;4.90;3.97;;;33.00;1.00;;;;;;5019385;28;20457;-83
2023/09/08 11:28:01;;;;;;;4.70;3.47;;;32.90;1.00;;;;;;5019601;28;20464;-83
2023/09/08 11:30:28;;;;;;;3.93;3.50;;;33.10;1.00;;;;;;5016099;28;20469;-83
2023/09/08 11:32:58;;;;;;;6.40;4.27;;;33.30;1.00;;;;;;5019205;28;20837;-83
2023/09/08 11:35:29;;;;;;;5.10;4.30;;;33.50;1.00;;;;;;5024129;28;20465;-84
2023/09/08 11:38:02;;;;;;;4.80;4.27;;;33.50;1.00;;;;;;5022114;28;20450;-82
2023/09/08 11:40:32;;;;;;;5.90;3.73;;;33.50;1.00;;;;;;5024026;28;20504;-82
2023/09/08 11:42:59;;;;;;;4.17;3.50;;;33.50;1.00;;;;;;5021585;28;20457;-84
2023/09/08 11:45:27;;;;;;;4.03;3.63;;;33.80;1.00;;;;;;5021631;28;20477;-84
2023/09/08 11:47:56;;;;;;;4.80;4.07;;;34.00;1.00;;;;;;5020570;28;20532;-82
2023/09/08 11:50:23;;;;;;;4.23;3.70;;;34.00;1.00;;;;;;5021419;28;20549;-81
2023/09/08 11:52:52;;;;;;;6.97;3.97;;;34.10;1.00;;;;;;5021577;28;20584;-83
2023/09/08 11:55:20;;;;;;;5.53;4.10;;;34.20;1.00;;;;;;5021273;28;20478;-82
2023/09/08 11:57:57;;;;;;;5.93;4.30;;;34.10;1.00;;;;;;5003738;28;20889;-83
2023/09/08 12:00:25;;;;;;;4.40;3.70;;;34.20;1.00;;;;;;5012503;28;20496;-82
2023/09/08 12:02:52;;;;;;;4.33;3.50;;;34.50;1.00;;;;;;5020763;28;20809;-81
2023/09/08 12:05:24;;;;;;;4.47;3.07;;;34.60;1.00;;;;;;5021188;28;20450;-82
2023/09/08 12:07:52;;;;;;;4.33;3.67;;;34.80;1.00;;;;;;5022800;28;21045;-83
2023/09/08 12:10:19;;;;;;;4.60;4.07;;;34.90;1.00;;;;;;5022583;28;21015;-81
2023/09/08 12:12:48;;;;;;;5.00;4.10;;;34.70;1.00;;;;;;5019662;28;20485;-81
2023/09/08 12:15:34;;;;;;;4.13;3.73;;;34.80;1.00;;;;;;5021249;28;20446;-82
2023/09/08 12:18:03;;;;;;;5.17;3.40;;;35.10;1.00;;;;;;5021594;28;20549;-82
2023/09/08 12:20:30;;;;;;;5.87;4.07;;;35.60;1.00;;;;;;5021030;28;20528;-82
2023/09/08 12:23:00;;;;;;;6.57;3.70;;;36.10;1.00;;;;;;5021323;28;20452;-81
2023/09/08 12:25:28;;;;;;;4.20;3.80;;;36.40;1.00;;;;;;5020945;28;20978;-81
2023/09/08 12:27:55;;;;;;;4.40;4.00;;;36.40;1.00;;;;;;5019646;28;20578;-81
2023/09/08 12:30:29;;;;;;;4.37;3.97;;;36.50;1.00;;;;;;5017567;28;20549;-80
2023/09/08 12:32:59;;;;;;;4.30;3.90;;;36.40;1.00;;;;;;5019645;28;20565;-80
2023/09/08 12:35:26;;;;;;;4.20;3.40;;;36.10;1.00;;;;;;5019902;28;20872;-82
2023/09/08 12:37:57;;;;;;;6.23;4.20;;;36.10;1.00;;;;;;5019386;28;20465;-81
2023/09/08 12:40:24;;;;;;;4.80;4.20;;;36.00;1.00;;;;;;5025907;28;20541;-79
2023/09/08 12:42:51;;;;;;;4.87;3.57;;;35.60;1.00;;;;;;5027646;28;20537;-80
2023/09/08 12:45:19;;;;;;;8.63;3.60;;;35.70;1.00;;;;;;5025780;28;20517;-81
2023/09/08 12:47:45;;;;;;;4.20;3.70;;;35.70;1.00;;;;;;5027135;28;20517;-81
2023/09/08 12:50:14;;;;;;;5.00;3.53;;;35.70;1.00;;;;;;5024885;28;20480;-82
2023/09/08 12:52:41;;;;;;;3.80;3.40;;;35.60;1.00;;;;;;5012437;28;20612;-81
2023/09/08 12:55:08;;;;;;;3.97;3.27;;;35.70;1.00;;;;;;5021182;28;20911;-82
2023/09/08 12:57:35;;;;;;;5.10;3.97;;;35.90;1.00;;;;;;5021301;28;20456;-81